createdAt,value
2023-03-26T00:01:38.659Z,16.30
2023-03-26T00:04:07.784Z,17.65
2023-03-26T00:06:39.436Z,18.42
2023-03-26T00:09:10.285Z,23.48
2023-03-26T00:11:38.621Z,18.42
2023-03-26T00:14:07.034Z,18.45
2023-03-26T00:16:36.358Z,18.08
2023-03-26T00:19:04.949Z,21.42
2023-03-26T00:21:33.359Z,19.45
2023-03-26T00:24:07.449Z,17.10
2023-03-26T00:26:37.618Z,18.23
2023-03-26T00:29:06.962Z,24.40
2023-03-26T00:31:35.856Z,16.75
2023-03-26T00:34:05.659Z,24.02
2023-03-26T00:36:36.097Z,20.25
2023-03-26T00:39:05.698Z,25.92
2023-03-26T00:41:43.080Z,23.00
2023-03-26T00:44:13.565Z,25.38
2023-03-26T00:46:42.083Z,19.13
2023-03-26T00:49:11.060Z,18.75
2023-03-26T00:51:42.418Z,22.73
2023-03-26T00:54:11.000Z,24.58
2023-03-26T00:56:39.165Z,20.08
2023-03-26T00:59:09.194Z,26.80
2023-03-26T01:04:27.464Z,22.83
2023-03-26T01:07:00.868Z,21.88
2023-03-26T01:09:34.486Z,21.73
2023-03-26T01:12:06.552Z,20.35
2023-03-26T01:14:34.926Z,18.85
2023-03-26T01:17:06.904Z,20.13
2023-03-26T01:19:53.581Z,17.88
2023-03-26T01:22:25.199Z,20.20
2023-03-26T01:24:56.415Z,22.92
2023-03-26T01:27:39.432Z,20.88
2023-03-26T01:30:19.670Z,19.95
2023-03-26T01:32:50.586Z,17.33
2023-03-26T01:35:44.950Z,23.58
2023-03-26T01:38:50.061Z,25.15
2023-03-26T01:41:44.004Z,25.77
2023-03-26T01:44:29.344Z,21.08
2023-03-26T01:46:59.146Z,22.02
2023-03-26T01:49:31.430Z,23.23
2023-03-26T01:51:59.698Z,21.70
2023-03-26T01:54:31.325Z,22.95
2023-03-26T01:57:15.776Z,19.42
2023-03-26T02:00:12.455Z,20.30
2023-03-26T02:03:18.412Z,23.23
2023-03-26T02:06:03.714Z,22.55
2023-03-26T02:08:39.185Z,19.35
2023-03-26T02:11:13.124Z,18.35
2023-03-26T02:13:44.416Z,21.73
2023-03-26T02:16:16.425Z,19.60
2023-03-26T02:18:47.356Z,24.27
2023-03-26T02:21:21.444Z,19.38
2023-03-26T02:23:57.566Z,22.45
2023-03-26T02:26:26.070Z,23.73
2023-03-26T02:28:59.754Z,25.45
2023-03-26T02:31:27.700Z,26.92
2023-03-26T02:33:56.689Z,19.10
2023-03-26T02:36:27.353Z,20.67
2023-03-26T02:39:00.146Z,25.08
2023-03-26T02:41:29.763Z,23.42
2023-03-26T02:44:02.102Z,27.02
2023-03-26T02:46:48.532Z,17.27
2023-03-26T02:49:36.805Z,19.77
2023-03-26T02:52:06.656Z,25.63
2023-03-26T02:54:37.070Z,23.05
2023-03-26T02:57:07.791Z,27.15
2023-03-26T02:59:56.089Z,22.38
2023-03-26T03:02:48.225Z,25.08
2023-03-26T03:05:32.693Z,18.33
2023-03-26T03:08:22.309Z,24.25
2023-03-26T03:11:25.062Z,26.02
2023-03-26T03:13:54.182Z,19.77
2023-03-26T03:16:24.466Z,28.27
2023-03-26T03:18:58.140Z,30.73
2023-03-26T03:21:35.683Z,30.77
2023-03-26T03:24:03.886Z,21.90
2023-03-26T03:26:36.565Z,26.83
2023-03-26T03:29:26.496Z,20.92
2023-03-26T03:31:55.768Z,27.30
2023-03-26T03:34:39.041Z,23.40
2023-03-26T03:37:07.581Z,23.65
2023-03-26T03:39:50.615Z,30.02
2023-03-26T03:42:21.361Z,24.70
2023-03-26T03:44:51.705Z,30.67
2023-03-26T03:47:55.014Z,23.27
2023-03-26T03:50:33.029Z,25.42
2023-03-26T03:53:18.556Z,20.50
2023-03-26T03:55:53.296Z,28.95
2023-03-26T03:58:24.718Z,25.35
2023-03-26T04:01:01.036Z,26.17
2023-03-26T04:03:52.380Z,26.10
2023-03-26T04:06:25.245Z,27.55
2023-03-26T04:08:54.758Z,26.20
2023-03-26T04:11:23.305Z,23.58
2023-03-26T04:14:10.286Z,20.90
2023-03-26T04:16:56.971Z,18.30
2023-03-26T04:19:27.354Z,26.38
2023-03-26T04:21:55.589Z,21.45
2023-03-26T04:24:24.502Z,26.85
2023-03-26T04:27:30.289Z,30.27
2023-03-26T04:30:08.492Z,26.73
2023-03-26T04:32:38.591Z,19.70
2023-03-26T04:35:07.728Z,25.77
2023-03-26T04:37:41.083Z,22.25
2023-03-26T04:40:19.443Z,23.52
2023-03-26T04:43:26.503Z,19.52
2023-03-26T04:46:10.643Z,22.85
2023-03-26T04:48:47.785Z,27.45
2023-03-26T04:51:18.148Z,26.05
2023-03-26T04:53:58.273Z,23.92
2023-03-26T04:59:34.661Z,27.83
2023-03-26T05:02:09.607Z,23.50
2023-03-26T05:04:50.049Z,26.50
2023-03-26T05:07:22.467Z,21.58
2023-03-26T05:09:53.604Z,24.55
2023-03-26T05:12:34.551Z,21.88
2023-03-26T05:15:17.120Z,22.10
2023-03-26T05:17:59.982Z,22.63
2023-03-26T05:20:43.657Z,23.75
2023-03-26T05:23:11.885Z,24.75
2023-03-26T05:25:43.467Z,23.75
2023-03-26T05:28:24.367Z,28.58
2023-03-26T05:30:58.608Z,35.95
2023-03-26T05:33:29.689Z,27.15
2023-03-26T05:36:13.577Z,28.45
2023-03-26T05:38:49.366Z,28.05
2023-03-26T05:41:37.213Z,34.88
2023-03-26T05:44:06.098Z,31.10
2023-03-26T05:46:34.256Z,26.33
2023-03-26T05:49:02.465Z,31.55
2023-03-26T05:51:34.691Z,29.63
2023-03-26T05:54:22.810Z,26.17
2023-03-26T05:57:09.109Z,25.38
2023-03-26T05:59:56.348Z,29.88
2023-03-26T06:02:43.066Z,29.55
2023-03-26T06:05:37.285Z,30.02
2023-03-26T06:08:29.763Z,34.30
2023-03-26T06:11:07.288Z,33.28
2023-03-26T06:13:37.333Z,31.60
2023-03-26T06:16:06.113Z,30.30
2023-03-26T06:18:37.372Z,27.20
2023-03-26T06:21:18.034Z,33.63
2023-03-26T06:23:51.920Z,31.50
2023-03-26T06:26:49.173Z,32.83
2023-03-26T06:29:19.768Z,33.78
2023-03-26T06:31:53.808Z,31.60
2023-03-26T06:34:38.536Z,32.55
2023-03-26T06:37:06.408Z,32.70
2023-03-26T06:39:34.503Z,33.70
2023-03-26T06:42:16.089Z,33.65
2023-03-26T06:44:59.617Z,42.88
2023-03-26T06:47:46.286Z,34.17
2023-03-26T06:50:43.404Z,36.28
2023-03-26T06:53:26.448Z,37.97
2023-03-26T06:55:59.782Z,35.55
2023-03-26T06:58:53.667Z,31.85
2023-03-26T07:01:40.450Z,32.83
2023-03-26T07:10:19.286Z,38.00
2023-03-26T07:13:01.293Z,34.05
2023-03-26T07:16:04.646Z,34.45
2023-03-26T07:18:58.910Z,28.77
2023-03-26T07:21:34.660Z,42.72
2023-03-26T07:24:11.129Z,32.17
2023-03-26T07:27:19.881Z,33.10
2023-03-26T07:30:17.936Z,36.13
2023-03-26T07:33:41.468Z,37.90
2023-03-26T07:36:59.753Z,39.13
2023-03-26T07:39:59.808Z,36.33
2023-03-26T07:42:50.214Z,42.55
2023-03-26T07:45:43.455Z,28.02
2023-03-26T07:48:40.688Z,31.35
2023-03-26T07:51:18.790Z,26.27
2023-03-26T07:54:09.986Z,31.83
2023-03-26T07:57:13.597Z,33.42
2023-03-26T08:00:02.506Z,28.67
2023-03-26T08:03:10.018Z,28.40
2023-03-26T08:06:15.443Z,30.42
2023-03-26T08:09:38.384Z,22.13
2023-03-26T08:12:59.687Z,22.13
2023-03-26T08:15:41.646Z,26.42
2023-03-26T08:18:36.090Z,21.30
2023-03-26T08:21:18.671Z,17.83
2023-03-26T08:24:16.507Z,20.45
2023-03-26T08:27:05.535Z,21.75
2023-03-26T08:29:50.227Z,23.77
2023-03-26T08:32:19.952Z,24.63
2023-03-26T08:34:48.309Z,14.05
2023-03-26T08:37:16.416Z,13.88
2023-03-26T08:39:45.308Z,19.95
2023-03-26T08:42:19.019Z,14.77
2023-03-26T08:44:55.934Z,16.17
2023-03-26T08:48:03.290Z,18.80
2023-03-26T08:50:58.321Z,13.48
2023-03-26T08:53:45.202Z,17.95
2023-03-26T08:56:32.528Z,18.00
2023-03-26T08:59:37.811Z,11.98
2023-03-26T09:02:11.758Z,14.03
2023-03-26T09:04:53.846Z,16.37
2023-03-26T09:08:04.693Z,14.95
2023-03-26T09:10:52.381Z,12.73
2023-03-26T09:13:45.331Z,15.23
2023-03-26T09:16:13.097Z,14.70
2023-03-26T09:19:11.272Z,15.27
2023-03-26T09:22:37.987Z,14.32
2023-03-26T09:25:14.302Z,13.65
2023-03-26T09:28:09.659Z,10.27
2023-03-26T09:30:43.555Z,9.48
2023-03-26T09:33:26.436Z,10.90
2023-03-26T09:36:08.727Z,12.65
2023-03-26T09:39:00.451Z,13.98
2023-03-26T09:42:24.409Z,20.05
2023-03-26T09:45:29.233Z,9.52
2023-03-26T09:48:38.576Z,13.00
2023-03-26T09:51:09.286Z,7.75
2023-03-26T09:54:15.104Z,11.75
2023-03-26T09:57:26.331Z,11.07
2023-03-26T09:59:57.011Z,12.00
2023-03-26T10:02:45.850Z,13.68
2023-03-26T10:05:42.427Z,13.40
2023-03-26T10:08:48.163Z,9.55
2023-03-26T10:11:53.367Z,19.83
2023-03-26T10:14:37.059Z,12.07
2023-03-26T10:17:25.428Z,8.75
2023-03-26T10:20:13.083Z,15.40
2023-03-26T10:23:06.597Z,17.38
2023-03-26T10:25:48.130Z,15.48
2023-03-26T10:28:18.800Z,12.75
2023-03-26T10:31:07.859Z,7.85
2023-03-26T10:33:48.158Z,19.92
2023-03-26T10:36:35.477Z,12.23
2023-03-26T10:39:37.253Z,10.65
2023-03-26T10:42:46.782Z,9.35
2023-03-26T10:45:57.440Z,10.75
2023-03-26T10:48:28.369Z,15.02
2023-03-26T10:51:05.325Z,10.93
2023-03-26T10:53:51.881Z,9.40
2023-03-26T10:56:38.376Z,11.85
2023-03-26T10:59:13.615Z,9.70
2023-03-26T11:02:07.662Z,15.45
2023-03-26T11:05:17.754Z,14.82
2023-03-26T11:08:07.390Z,12.60
2023-03-26T11:11:02.927Z,11.75
2023-03-26T11:13:55.284Z,11.40
2023-03-26T11:17:00.111Z,14.27
2023-03-26T11:19:44.848Z,14.07
2023-03-26T11:22:19.287Z,12.07
2023-03-26T11:24:53.198Z,16.35
2023-03-26T11:27:56.066Z,12.80
2023-03-26T11:30:46.876Z,8.23
2023-03-26T11:33:32.784Z,29.45
2023-03-26T11:36:09.835Z,14.45
2023-03-26T11:39:10.733Z,14.40
2023-03-26T11:41:38.664Z,16.58
2023-03-26T11:44:23.878Z,14.50
2023-03-26T11:47:04.090Z,9.95
2023-03-26T11:49:32.923Z,18.67
2023-03-26T11:52:01.876Z,15.75
2023-03-26T11:54:29.831Z,19.48
2023-03-26T11:57:12.886Z,16.50
2023-03-26T11:59:57.225Z,16.25
2023-03-26T12:02:34.148Z,9.90
2023-03-26T12:05:15.456Z,13.02
2023-03-26T12:08:02.447Z,9.40
2023-03-26T12:10:39.184Z,12.18
2023-03-26T12:13:28.121Z,13.80
2023-03-26T12:16:04.518Z,8.38
2023-03-26T12:18:32.809Z,14.13
2023-03-26T12:21:14.064Z,9.43
2023-03-26T12:24:05.359Z,14.23
2023-03-26T12:26:46.373Z,17.65
2023-03-26T12:29:17.186Z,10.57
2023-03-26T12:32:13.218Z,8.18
2023-03-26T12:34:44.206Z,10.13
2023-03-26T12:37:36.964Z,12.50
2023-03-26T12:40:28.086Z,18.38
2023-03-26T12:44:52.618Z,13.52
2023-03-26T12:47:54.245Z,15.15
2023-03-26T12:48:42.757Z,11.30
2023-03-26T12:51:26.299Z,10.15
2023-03-26T12:54:03.492Z,12.43
2023-03-26T12:56:50.048Z,9.20
2023-03-26T12:59:53.972Z,14.15
2023-03-26T13:02:33.825Z,9.38
2023-03-26T13:05:29.695Z,11.45
2023-03-26T13:11:20.901Z,9.90
2023-03-26T13:14:06.450Z,6.30
2023-03-26T13:16:46.694Z,8.10
2023-03-26T13:19:45.142Z,12.77
2023-03-26T13:22:24.703Z,15.82
2023-03-26T13:25:08.121Z,12.27
2023-03-26T13:28:11.998Z,14.40
2023-03-26T13:30:56.958Z,8.75
2023-03-26T13:33:33.803Z,9.40
2023-03-26T13:36:24.965Z,8.45
2023-03-26T13:39:14.205Z,10.98
2023-03-26T13:41:55.800Z,6.72
2023-03-26T13:45:04.557Z,11.27
2023-03-26T13:47:41.764Z,8.48
2023-03-26T13:50:29.228Z,6.60
2023-03-26T13:53:05.952Z,9.88
2023-03-26T13:55:56.900Z,9.10
2023-03-26T13:58:42.420Z,10.63
2023-03-26T14:01:19.392Z,6.20
2023-03-26T14:04:17.822Z,11.93
2023-03-26T14:07:08.032Z,6.22
2023-03-26T14:09:38.886Z,9.90
2023-03-26T14:12:27.424Z,7.45
2023-03-26T14:15:16.425Z,11.70
2023-03-26T14:18:12.784Z,5.97
2023-03-26T14:21:09.590Z,10.00
2023-03-26T14:23:54.676Z,7.95
2023-03-26T14:26:41.633Z,16.48
2023-03-26T14:29:29.695Z,8.05
2023-03-26T14:32:12.765Z,12.82
2023-03-26T14:35:02.207Z,6.80
2023-03-26T14:37:39.998Z,7.38
2023-03-26T14:40:19.196Z,8.27
2023-03-26T14:43:17.475Z,6.70
2023-03-26T14:46:09.143Z,9.77
2023-03-26T14:48:39.934Z,8.25
2023-03-26T14:51:45.367Z,5.72
2023-03-26T14:54:17.232Z,6.70
2023-03-26T14:56:51.913Z,10.35
2023-03-26T14:59:47.719Z,10.25
2023-03-26T15:02:37.973Z,8.70
2023-03-26T15:05:29.227Z,8.45
2023-03-26T15:08:06.177Z,9.40
2023-03-26T15:11:02.250Z,6.25
2023-03-26T15:13:52.306Z,8.18
2023-03-26T15:16:29.570Z,10.93
2023-03-26T15:19:44.680Z,6.35
2023-03-26T15:22:52.900Z,8.10
2023-03-26T15:25:41.964Z,13.23
2023-03-26T15:28:46.582Z,5.97
2023-03-26T15:31:42.651Z,6.43
2023-03-26T15:34:20.333Z,7.32
2023-03-26T15:37:22.430Z,4.47
2023-03-26T15:40:31.489Z,6.18
2023-03-26T15:43:02.163Z,7.97
2023-03-26T15:45:38.216Z,9.57
2023-03-26T15:48:12.133Z,4.53
2023-03-26T15:50:45.742Z,5.63
2023-03-26T15:53:25.769Z,7.50
2023-03-26T15:56:01.958Z,6.38
2023-03-26T15:58:56.899Z,7.47
2023-03-26T16:01:39.699Z,12.02
2023-03-26T16:04:29.539Z,14.10
2023-03-26T16:07:21.800Z,14.02
2023-03-26T16:09:54.419Z,10.13
2023-03-26T16:12:47.885Z,14.68
2023-03-26T16:15:26.842Z,9.13
2023-03-26T16:18:40.142Z,14.30
2023-03-26T16:21:34.400Z,8.45
2023-03-26T16:24:10.275Z,6.40
2023-03-26T16:26:43.980Z,4.53
2023-03-26T16:29:15.703Z,8.25
2023-03-26T16:32:14.644Z,10.82
2023-03-26T16:34:58.295Z,9.63
2023-03-26T16:37:45.925Z,7.43
2023-03-26T16:40:20.803Z,8.85
2023-03-26T16:42:55.902Z,7.30
2023-03-26T16:45:59.395Z,9.40
2023-03-26T16:48:58.998Z,4.38
2023-03-26T16:51:34.087Z,14.38
2023-03-26T16:54:22.201Z,6.78
2023-03-26T16:57:07.418Z,11.02
2023-03-26T17:00:07.350Z,10.85
2023-03-26T17:02:52.349Z,9.30
2023-03-26T17:05:44.884Z,5.40
2023-03-26T17:08:37.415Z,6.55
2023-03-26T17:11:21.496Z,6.18
2023-03-26T17:14:17.140Z,4.72
2023-03-26T17:17:02.858Z,6.53
2023-03-26T17:19:46.649Z,6.15
2023-03-26T17:22:26.727Z,11.85
2023-03-26T17:25:19.854Z,7.40
2023-03-26T17:28:15.568Z,5.97
2023-03-26T17:30:54.574Z,12.05
2023-03-26T17:33:38.831Z,8.27
2023-03-26T17:36:12.701Z,6.40
2023-03-26T17:38:45.318Z,7.47
2023-03-26T17:41:17.840Z,4.80
2023-03-26T17:43:51.301Z,8.68
2023-03-26T17:46:34.635Z,7.00
2023-03-26T17:49:13.202Z,9.10
2023-03-26T17:51:58.628Z,6.25
2023-03-26T17:54:46.552Z,4.53
2023-03-26T17:57:28.308Z,8.32
2023-03-26T18:00:00.956Z,8.25
2023-03-26T18:02:42.422Z,11.07
2023-03-26T18:05:15.362Z,9.25
2023-03-26T18:08:12.882Z,7.10
2023-03-26T18:11:08.091Z,9.88
2023-03-26T18:14:05.419Z,10.35
2023-03-26T18:16:54.678Z,6.65
2023-03-26T18:19:25.013Z,7.85
2023-03-26T18:22:04.820Z,11.75
2023-03-26T18:24:38.134Z,8.05
2023-03-26T18:27:12.515Z,11.82
2023-03-26T18:30:02.856Z,11.70
2023-03-26T18:32:33.991Z,8.63
2023-03-26T18:35:21.704Z,8.88
2023-03-26T18:37:53.469Z,11.20
2023-03-26T18:40:26.194Z,10.20
2023-03-26T18:42:58.052Z,9.98
2023-03-26T18:45:29.283Z,12.60
2023-03-26T18:48:01.276Z,3.58
2023-03-26T18:50:37.223Z,3.50
2023-03-26T18:53:10.212Z,8.27
2023-03-26T18:55:39.847Z,8.48
2023-03-26T18:58:30.198Z,10.90
2023-03-26T19:01:03.898Z,9.05
2023-03-26T19:03:36.076Z,14.80
2023-03-26T19:06:08.539Z,9.75
2023-03-26T19:08:39.019Z,12.43
2023-03-26T19:11:09.146Z,4.63
2023-03-26T19:13:42.703Z,5.82
2023-03-26T19:16:24.627Z,8.55
2023-03-26T19:18:53.280Z,3.28
2023-03-26T19:21:23.528Z,6.30
2023-03-26T19:23:55.828Z,4.70
2023-03-26T19:26:25.537Z,8.88
2023-03-26T19:28:56.597Z,5.63
2023-03-26T19:31:27.935Z,6.78
2023-03-26T19:34:00.685Z,4.70
2023-03-26T19:36:31.702Z,6.78
2023-03-26T19:38:59.700Z,2.88
2023-03-26T19:41:36.770Z,6.22
2023-03-26T19:44:27.040Z,6.63
2023-03-26T19:47:05.464Z,10.73
2023-03-26T19:49:48.586Z,8.38
2023-03-26T19:52:32.665Z,8.77
2023-03-26T19:55:03.864Z,8.10
2023-03-26T19:57:36.390Z,4.43
2023-03-26T20:00:15.300Z,7.53
2023-03-26T20:02:46.459Z,5.00
2023-03-26T20:05:24.532Z,9.77
2023-03-26T20:07:56.012Z,9.48
2023-03-26T20:10:24.626Z,14.18
2023-03-26T20:12:52.996Z,8.70
2023-03-26T20:15:30.211Z,11.68
2023-03-26T20:18:00.985Z,12.18
2023-03-26T20:20:30.734Z,12.35
2023-03-26T20:22:59.155Z,7.22
2023-03-26T20:25:35.034Z,8.32
2023-03-26T20:28:03.186Z,5.93
2023-03-26T20:30:37.323Z,7.53
2023-03-26T20:33:12.481Z,6.60
2023-03-26T20:35:45.509Z,8.45
2023-03-26T20:38:13.545Z,6.78
2023-03-26T20:40:42.352Z,5.10
2023-03-26T20:43:12.940Z,3.40
2023-03-26T20:45:41.817Z,5.03
2023-03-26T20:48:12.517Z,6.43
2023-03-26T20:50:50.422Z,9.48
2023-03-26T20:53:20.325Z,6.93
2023-03-26T20:55:49.749Z,5.60
2023-03-26T20:58:31.147Z,8.70
2023-03-26T21:01:00.900Z,10.32
2023-03-26T21:03:30.292Z,5.22
2023-03-26T21:06:02.488Z,6.63
2023-03-26T21:08:37.073Z,8.70
2023-03-26T21:11:15.689Z,6.55
2023-03-26T21:14:21.190Z,3.53
2023-03-26T21:16:49.618Z,6.82
2023-03-26T21:19:17.736Z,7.03
2023-03-26T21:22:12.086Z,6.80
2023-03-26T21:25:05.406Z,8.48
2023-03-26T21:27:37.232Z,8.60
2023-03-26T21:30:13.800Z,9.75
2023-03-26T21:32:45.455Z,6.13
2023-03-26T21:35:14.947Z,8.82
2023-03-26T21:37:45.604Z,5.00
2023-03-26T21:40:16.519Z,9.80
2023-03-26T21:42:50.548Z,8.73
2023-03-26T21:45:20.014Z,6.43
2023-03-26T21:47:48.918Z,10.20
2023-03-26T21:50:19.369Z,5.70
2023-03-26T21:52:47.693Z,9.18
2023-03-26T21:55:24.368Z,4.13
2023-03-26T21:57:57.991Z,6.18
2023-03-26T22:00:41.156Z,8.43
2023-03-26T22:06:01.564Z,13.90
2023-03-26T22:08:41.494Z,6.97
2023-03-26T22:11:12.139Z,10.35
2023-03-26T22:13:40.066Z,8.05
2023-03-26T22:16:09.685Z,11.02
2023-03-26T22:18:37.797Z,12.60
2023-03-26T22:21:06.008Z,5.10
2023-03-26T22:23:38.257Z,14.85
2023-03-26T22:26:06.569Z,8.38
2023-03-26T22:28:34.485Z,11.68
2023-03-26T22:31:09.218Z,6.50
2023-03-26T22:33:38.316Z,5.97
2023-03-26T22:36:22.641Z,5.85
2023-03-26T22:38:55.193Z,11.57
2023-03-26T22:41:23.628Z,15.30
2023-03-26T22:43:55.949Z,11.95
2023-03-26T22:46:24.869Z,4.95
2023-03-26T22:48:52.901Z,5.03
2023-03-26T22:51:20.884Z,5.85
2023-03-26T22:53:48.890Z,3.65
2023-03-26T22:56:17.150Z,5.38
2023-03-26T22:58:48.173Z,8.55
2023-03-26T23:01:21.471Z,7.63
2023-03-26T23:03:50.913Z,7.90
2023-03-26T23:06:19.562Z,9.82
2023-03-26T23:08:47.535Z,10.98
2023-03-26T23:11:18.669Z,5.13
2023-03-26T23:13:47.692Z,8.32
2023-03-26T23:16:17.410Z,13.83
2023-03-26T23:18:48.387Z,8.20
2023-03-26T23:21:19.151Z,8.20
2023-03-26T23:23:48.686Z,9.35
2023-03-26T23:26:16.730Z,4.68
2023-03-26T23:28:44.729Z,8.48
2023-03-26T23:31:13.184Z,13.18
2023-03-26T23:33:46.025Z,5.53
2023-03-26T23:36:18.337Z,4.80
2023-03-26T23:38:48.126Z,8.52
2023-03-26T23:41:19.295Z,5.22
2023-03-26T23:43:53.530Z,9.05
2023-03-26T23:46:33.112Z,10.02
2023-03-26T23:49:04.741Z,11.90
2023-03-26T23:51:33.472Z,10.20
2023-03-26T23:54:02.451Z,10.68
2023-03-26T23:56:31.803Z,4.50
2023-03-26T23:59:00.651Z,7.53
